createdAt,value
2024-05-09T00:10:07.148Z,101008.09
2024-05-09T00:16:35.419Z,101016.63
2024-05-09T00:23:05.481Z,101013.56
2024-05-09T00:26:07.377Z,101006.38
2024-05-09T00:29:12.416Z,101011.88
2024-05-09T00:32:17.130Z,101007.69
2024-05-09T00:45:25.988Z,101030.31
2024-05-09T00:48:30.752Z,101022.50
2024-05-09T00:54:54.854Z,101013.34
2024-05-09T01:01:20.922Z,101009.16
2024-05-09T01:04:25.939Z,101018.50
2024-05-09T01:10:49.117Z,100998.59
2024-05-09T01:17:15.545Z,101014.91
2024-05-09T01:23:38.226Z,101014.72
2024-05-09T01:26:40.386Z,101010.13
2024-05-09T01:29:44.236Z,101000.94
2024-05-09T01:32:46.200Z,101011.91
2024-05-09T01:39:10.906Z,100987.63
2024-05-09T01:42:12.759Z,101006.28
2024-05-09T01:45:15.045Z,101003.16
2024-05-09T01:48:18.469Z,101001.03
2024-05-09T01:51:21.565Z,100999.88
2024-05-09T01:54:27.376Z,101000.34
2024-05-09T02:00:52.105Z,100992.69
2024-05-09T02:03:54.061Z,100990.47
2024-05-09T02:06:55.798Z,100986.47
2024-05-09T02:10:00.309Z,100989.19
2024-05-09T02:13:02.154Z,100981.19
2024-05-09T02:16:04.527Z,100980.13
2024-05-09T02:19:26.458Z,100409.06
2024-05-09T02:22:28.316Z,100989.63
2024-05-09T02:25:33.603Z,100843.19
2024-05-09T02:28:35.519Z,100978.84
2024-05-09T02:31:39.598Z,100997.22
2024-05-09T02:37:50.200Z,100950.50
2024-05-09T02:40:54.792Z,100980.75
2024-05-09T02:43:56.728Z,100984.22
2024-05-09T02:46:59.678Z,100978.63
2024-05-09T02:50:02.395Z,100976.75
2024-05-09T02:53:05.365Z,100735.66
2024-05-09T02:56:24.845Z,100985.09
2024-05-09T02:59:45.960Z,100974.00
2024-05-09T03:02:47.986Z,100965.13
2024-05-09T03:08:52.477Z,100950.53
2024-05-09T03:11:54.524Z,100970.31
2024-05-09T03:15:01.023Z,100971.56
2024-05-09T03:21:20.370Z,100967.56
2024-05-09T03:24:22.372Z,100959.00
2024-05-09T03:27:24.084Z,100965.22
2024-05-09T03:30:39.904Z,100963.44
2024-05-09T03:33:45.032Z,100965.75
2024-05-09T03:36:51.651Z,100957.22
2024-05-09T03:40:02.907Z,100844.09
2024-05-09T03:43:07.195Z,100452.88
2024-05-09T03:46:12.585Z,100956.13
2024-05-09T03:49:15.027Z,100930.16
2024-05-09T03:52:17.789Z,100919.59
2024-05-09T03:55:19.988Z,100856.88
2024-05-09T03:58:25.790Z,100941.13
2024-05-09T04:01:30.474Z,100964.06
2024-05-09T04:04:35.212Z,100966.47
2024-05-09T04:07:37.979Z,100930.44
2024-05-09T04:10:40.982Z,100964.94
2024-05-09T04:13:43.095Z,100806.31
2024-05-09T04:16:47.650Z,100950.91
2024-05-09T04:19:49.542Z,100942.69
2024-05-09T04:22:51.535Z,100947.28
2024-05-09T04:25:53.628Z,100958.19
2024-05-09T04:28:55.582Z,100813.91
2024-05-09T04:35:15.548Z,100938.44
2024-05-09T04:38:17.271Z,100958.47
2024-05-09T04:41:19.980Z,100811.78
2024-05-09T04:44:21.894Z,100748.03
2024-05-09T04:47:27.011Z,100961.47
2024-05-09T04:50:35.652Z,100958.47
2024-05-09T04:53:40.404Z,100953.72
2024-05-09T04:56:42.161Z,100953.03
2024-05-09T04:59:49.452Z,100627.13
2024-05-09T05:06:19.367Z,100949.44
2024-05-09T05:09:21.332Z,100948.19
2024-05-09T05:12:26.972Z,100941.84
2024-05-09T05:15:29.298Z,100933.91
2024-05-09T05:18:31.562Z,100926.16
2024-05-09T05:21:35.893Z,100939.16
2024-05-09T05:24:38.523Z,100937.97
2024-05-09T05:27:41.113Z,100799.34
2024-05-09T05:34:14.874Z,100940.16
2024-05-09T05:37:19.442Z,100892.06
2024-05-09T05:40:35.778Z,100937.97
2024-05-09T05:43:40.434Z,100940.88
2024-05-09T05:46:42.242Z,100910.03
2024-05-09T05:49:44.241Z,100928.03
2024-05-09T05:53:04.875Z,100605.03
2024-05-09T05:56:10.172Z,100545.13
2024-05-09T05:59:15.325Z,100940.34
2024-05-09T06:02:17.756Z,100938.06
2024-05-09T06:05:23.425Z,100938.50
2024-05-09T06:11:43.791Z,100416.53
2024-05-09T06:14:48.339Z,100931.09
2024-05-09T06:17:50.386Z,100923.63
2024-05-09T06:24:09.491Z,100931.00
2024-05-09T06:27:11.367Z,100931.50
2024-05-09T06:30:25.774Z,100926.66
2024-05-09T06:33:33.201Z,100919.72
2024-05-09T06:36:42.124Z,100922.25
2024-05-09T06:42:52.571Z,100604.03
2024-05-09T06:45:56.995Z,100911.41
2024-05-09T06:52:23.594Z,100826.41
2024-05-09T06:55:25.454Z,100902.38
2024-05-09T06:58:27.285Z,100910.84
2024-05-09T07:01:32.164Z,100896.38
2024-05-09T07:04:35.342Z,100906.63
2024-05-09T07:07:40.266Z,100902.63
2024-05-09T07:10:42.989Z,100902.50
2024-05-09T07:13:45.108Z,100900.97
2024-05-09T07:20:03.091Z,100898.06
2024-05-09T07:29:44.519Z,100697.28
2024-05-09T07:32:49.420Z,100694.38
2024-05-09T07:35:56.522Z,100411.16
2024-05-09T07:38:58.400Z,100797.66
2024-05-09T07:42:00.884Z,100887.78
2024-05-09T07:45:21.247Z,100592.19
2024-05-09T07:54:56.830Z,100875.41
2024-05-09T07:57:59.997Z,100792.69
2024-05-09T08:07:52.087Z,100850.00
2024-05-09T08:10:54.157Z,100861.78
2024-05-09T08:16:58.573Z,100817.50
2024-05-09T08:20:01.012Z,100852.66
2024-05-09T08:23:07.279Z,100849.81
2024-05-09T08:26:09.141Z,100648.19
2024-05-09T08:29:10.762Z,100846.91
2024-05-09T08:32:15.798Z,100491.53
2024-05-09T08:35:17.626Z,100842.69
2024-05-09T08:38:26.723Z,100843.97
2024-05-09T08:41:31.280Z,100839.41
2024-05-09T08:47:40.602Z,100830.06
2024-05-09T08:50:45.401Z,100836.63
2024-05-09T08:53:51.842Z,100726.53
2024-05-09T08:56:54.046Z,100818.31
2024-05-09T09:03:29.456Z,100838.66
2024-05-09T09:06:34.996Z,100443.44
2024-05-09T09:09:48.591Z,100833.31
2024-05-09T09:12:55.342Z,100838.22
2024-05-09T09:19:11.273Z,100822.25
2024-05-09T09:25:18.820Z,100809.75
2024-05-09T09:28:23.252Z,100819.00
2024-05-09T09:31:25.751Z,100822.75
2024-05-09T09:34:28.073Z,100722.50
2024-05-09T09:37:34.376Z,100801.56
2024-05-09T09:40:49.119Z,100691.03
2024-05-09T09:43:53.604Z,100818.22
2024-05-09T09:46:57.011Z,100708.94
2024-05-09T09:50:02.327Z,100818.22
2024-05-09T09:53:07.138Z,100816.38
2024-05-09T09:56:15.862Z,100812.56
2024-05-09T09:59:18.147Z,100691.91
2024-05-09T10:02:20.490Z,100803.31
2024-05-09T10:05:24.496Z,100802.22
2024-05-09T10:08:27.257Z,100796.06
2024-05-09T10:11:37.028Z,100772.72
2024-05-09T10:14:48.023Z,100785.66
2024-05-09T10:17:50.944Z,100784.56
2024-05-09T10:24:07.241Z,100771.69
2024-05-09T10:27:13.074Z,100775.66
2024-05-09T10:33:55.906Z,100768.19
2024-05-09T10:37:17.192Z,100748.75
2024-05-09T10:40:25.880Z,100757.06
2024-05-09T10:46:53.835Z,100758.59
2024-05-09T10:49:56.397Z,100692.19
2024-05-09T10:52:58.381Z,100742.50
2024-05-09T10:59:15.258Z,100727.50
2024-05-09T11:02:19.875Z,100735.03
2024-05-09T11:05:23.362Z,100712.28
2024-05-09T11:08:25.970Z,100731.19
2024-05-09T11:11:29.081Z,100727.72
2024-05-09T11:14:31.050Z,100726.38
2024-05-09T11:17:40.259Z,100520.88
2024-05-09T11:20:42.348Z,100715.41
2024-05-09T11:23:44.569Z,100721.00
2024-05-09T11:26:46.577Z,100718.19
2024-05-09T11:29:48.383Z,100714.69
2024-05-09T11:32:53.189Z,100711.78
2024-05-09T11:35:55.286Z,100716.25
2024-05-09T11:38:57.340Z,100711.78
2024-05-09T11:42:02.339Z,100708.53
2024-05-09T11:45:04.858Z,100699.59
2024-05-09T11:48:11.553Z,100701.03
2024-05-09T11:51:13.466Z,100702.84
2024-05-09T11:54:15.629Z,100695.84
2024-05-09T11:57:17.977Z,100584.97
2024-05-09T12:00:29.154Z,100701.16
2024-05-09T12:03:41.223Z,100456.03
2024-05-09T12:06:43.559Z,100692.75
2024-05-09T12:16:13.266Z,100684.59
2024-05-09T12:19:18.028Z,100678.69
2024-05-09T12:25:50.643Z,100615.38
2024-05-09T12:29:04.763Z,100681.34
2024-05-09T12:32:07.846Z,100609.47
2024-05-09T12:35:12.474Z,100698.44
2024-05-09T12:38:15.599Z,100685.44
2024-05-09T12:41:17.653Z,100680.69
2024-05-09T12:44:24.754Z,100680.25
2024-05-09T12:47:49.982Z,100457.44
2024-05-09T12:50:54.565Z,100679.09
2024-05-09T12:53:56.488Z,100680.78
2024-05-09T12:56:58.333Z,100684.28
2024-05-09T13:03:32.468Z,100674.59
2024-05-09T13:06:37.815Z,100649.84
2024-05-09T13:12:51.666Z,100667.34
2024-05-09T13:15:53.700Z,100664.25
2024-05-09T13:18:55.865Z,100662.84
2024-05-09T13:22:00.529Z,100656.56
2024-05-09T13:25:16.875Z,100650.69
2024-05-09T13:28:19.170Z,100651.44
2024-05-09T13:31:22.337Z,100643.00
2024-05-09T13:34:24.226Z,100650.47
2024-05-09T13:37:28.903Z,100648.13
2024-05-09T13:40:34.570Z,100646.31
2024-05-09T13:43:38.166Z,100629.00
2024-05-09T13:49:48.605Z,100636.69
2024-05-09T13:56:07.922Z,100638.50
2024-05-09T13:59:10.072Z,100624.53
2024-05-09T14:02:12.122Z,100632.34
2024-05-09T14:05:14.361Z,100637.09
2024-05-09T14:08:20.564Z,100631.22
2024-05-09T14:11:31.982Z,100376.56
2024-05-09T14:14:41.819Z,100627.59
2024-05-09T14:17:43.785Z,100630.53
2024-05-09T14:20:45.637Z,100623.50
2024-05-09T14:26:58.877Z,100622.22
2024-05-09T14:33:09.526Z,100619.56
2024-05-09T14:36:11.925Z,100581.66
2024-05-09T14:42:33.449Z,100621.50
2024-05-09T14:45:35.553Z,100616.28
2024-05-09T14:48:51.884Z,100616.13
2024-05-09T14:51:56.542Z,100622.25
2024-05-09T14:55:00.637Z,100605.69
2024-05-09T14:58:03.310Z,100604.06
2024-05-09T15:01:10.995Z,100603.06
2024-05-09T15:04:13.549Z,100590.91
2024-05-09T15:07:33.012Z,100586.72
2024-05-09T15:13:50.090Z,100578.69
2024-05-09T15:16:53.503Z,100479.47
2024-05-09T15:19:56.061Z,100560.13
2024-05-09T15:22:58.408Z,100552.81
2024-05-09T15:26:00.346Z,100557.66
2024-05-09T15:29:04.876Z,100552.47
2024-05-09T15:32:06.970Z,100540.63
2024-05-09T15:35:08.828Z,100544.34
2024-05-09T15:38:10.844Z,100530.06
2024-05-09T15:41:13.229Z,100531.19
2024-05-09T15:44:17.744Z,100522.91
2024-05-09T15:47:21.011Z,100536.28
2024-05-09T15:50:37.019Z,100512.53
2024-05-09T15:53:42.241Z,100522.84
2024-05-09T15:56:44.047Z,100527.34
2024-05-09T16:03:14.216Z,100529.97
2024-05-09T16:06:16.937Z,100530.63
2024-05-09T16:09:18.935Z,100540.63
2024-05-09T16:12:20.764Z,100532.28
2024-05-09T16:15:25.298Z,100523.97
2024-05-09T16:18:27.292Z,100475.59
2024-05-09T16:21:29.177Z,100519.56
2024-05-09T16:24:31.253Z,100412.81
2024-05-09T16:27:33.171Z,100506.03
2024-05-09T16:30:38.039Z,100513.31
2024-05-09T16:33:40.249Z,100515.38
2024-05-09T16:36:42.323Z,100519.91
2024-05-09T16:39:44.223Z,100513.97
2024-05-09T16:42:46.198Z,100515.03
2024-05-09T16:45:50.930Z,100513.78
2024-05-09T16:48:52.982Z,100507.63
2024-05-09T16:51:54.948Z,100518.16
2024-05-09T16:54:57.075Z,100519.31
2024-05-09T16:57:59.394Z,100504.41
2024-05-09T17:01:04.252Z,100509.63
2024-05-09T17:04:06.387Z,100475.50
2024-05-09T17:07:08.507Z,100524.38
2024-05-09T17:10:19.100Z,100516.31
2024-05-09T17:13:24.730Z,100521.50
2024-05-09T17:16:29.639Z,100527.00
2024-05-09T17:19:31.578Z,100436.78
2024-05-09T17:22:33.571Z,100518.69
2024-05-09T17:25:35.444Z,100520.53
2024-05-09T17:28:37.500Z,100519.19
2024-05-09T17:31:42.092Z,100511.22
2024-05-09T17:34:43.976Z,100468.25
2024-05-09T17:37:45.849Z,100510.63
2024-05-09T17:40:47.911Z,100361.75
2024-05-09T17:47:12.396Z,100483.91
2024-05-09T17:53:25.064Z,100354.72
2024-05-09T18:02:57.511Z,100462.19
2024-05-09T18:05:59.611Z,100478.56
2024-05-09T18:09:01.455Z,100483.00
2024-05-09T18:12:03.734Z,100470.66
2024-05-09T18:15:06.356Z,100481.66
2024-05-09T18:18:28.427Z,100481.03
2024-05-09T18:21:33.122Z,100480.94
2024-05-09T18:24:35.111Z,100442.25
2024-05-09T18:27:37.213Z,100477.97
2024-05-09T18:30:40.579Z,100488.50
2024-05-09T18:33:42.767Z,100490.63
2024-05-09T18:36:47.542Z,100447.69
2024-05-09T18:43:38.424Z,100062.19
2024-05-09T18:46:46.545Z,100503.88
2024-05-09T18:49:48.516Z,100504.16
2024-05-09T18:52:53.033Z,100502.78
2024-05-09T18:55:54.899Z,100501.75
2024-05-09T18:58:56.667Z,100492.53
2024-05-09T19:01:58.457Z,100504.75
2024-05-09T19:05:00.654Z,100513.97
2024-05-09T19:08:06.151Z,100516.09
2024-05-09T19:11:08.137Z,100519.75
2024-05-09T19:14:10.365Z,100509.44
2024-05-09T19:17:12.215Z,100521.78
2024-05-09T19:20:24.829Z,100522.41
2024-05-09T19:23:38.046Z,100525.31
2024-05-09T19:26:40.424Z,100522.97
2024-05-09T19:29:42.267Z,100524.34
2024-05-09T19:32:44.217Z,100522.97
2024-05-09T19:35:46.130Z,100528.91
2024-05-09T19:38:50.675Z,100527.84
2024-05-09T19:41:52.542Z,100506.63
2024-05-09T19:44:54.357Z,100539.31
2024-05-09T19:47:56.734Z,100536.84
2024-05-09T19:51:05.131Z,100543.84
2024-05-09T19:54:09.584Z,100548.59
2024-05-09T19:57:11.462Z,100551.66
2024-05-09T20:00:21.472Z,100543.97
2024-05-09T20:03:24.348Z,100530.78
2024-05-09T20:09:44.136Z,100543.38
2024-05-09T20:16:10.257Z,100230.16
2024-05-09T20:19:12.516Z,100117.63
2024-05-09T20:22:14.948Z,100558.69
2024-05-09T20:25:22.880Z,100553.50
2024-05-09T20:28:42.828Z,100545.88
2024-05-09T20:34:54.439Z,100555.59
2024-05-09T20:37:56.279Z,100555.59
2024-05-09T20:41:00.552Z,100561.63
2024-05-09T20:44:02.472Z,100517.06
2024-05-09T20:47:07.103Z,100564.81
2024-05-09T20:53:17.568Z,100567.78
2024-05-09T20:56:41.633Z,100573.34
2024-05-09T21:03:04.378Z,100531.81
2024-05-09T21:06:06.360Z,100594.75
2024-05-09T21:09:09.285Z,100122.22
2024-05-09T21:15:29.121Z,100329.19
2024-05-09T21:18:31.502Z,100608.16
2024-05-09T21:21:39.190Z,100607.19
2024-05-09T21:24:44.316Z,100588.69
2024-05-09T21:27:46.764Z,100264.72
2024-05-09T21:30:51.359Z,100613.44
2024-05-09T21:33:54.111Z,100619.94
2024-05-09T21:39:59.176Z,100610.47
2024-05-09T21:43:01.585Z,100626.25
2024-05-09T21:46:06.752Z,100630.94
2024-05-09T21:52:22.185Z,100636.22
2024-05-09T21:55:31.984Z,100634.75
2024-05-09T21:58:48.455Z,100574.66
2024-05-09T22:01:52.949Z,100646.53
2024-05-09T22:05:01.296Z,100649.78
2024-05-09T22:08:03.484Z,100646.28
2024-05-09T22:11:06.391Z,100637.28
2024-05-09T22:14:10.072Z,100641.00
2024-05-09T22:17:16.154Z,100641.34
2024-05-09T22:20:29.344Z,100641.84
2024-05-09T22:23:38.638Z,100638.47
2024-05-09T22:26:40.735Z,100653.72
2024-05-09T22:29:42.637Z,100653.09
2024-05-09T22:32:46.954Z,100652.88
2024-05-09T22:35:48.949Z,100578.38
2024-05-09T22:38:51.702Z,100662.09
2024-05-09T22:41:53.529Z,100673.97
2024-05-09T22:44:55.371Z,100670.50
2024-05-09T22:48:00.222Z,100673.13
2024-05-09T22:51:02.772Z,100436.91
2024-05-09T22:54:05.069Z,100505.94
2024-05-09T22:57:15.272Z,100677.78
2024-05-09T23:00:21.676Z,100684.13
2024-05-09T23:06:57.191Z,100658.41
2024-05-09T23:09:59.092Z,100689.59
2024-05-09T23:13:01.062Z,100686.19
2024-05-09T23:16:03.451Z,100684.38
2024-05-09T23:19:08.421Z,100695.25
2024-05-09T23:25:27.732Z,100630.03
2024-05-09T23:28:29.756Z,100687.72
2024-05-09T23:31:31.808Z,100694.06
2024-05-09T23:34:36.857Z,100699.47
2024-05-09T23:37:39.168Z,100701.56
2024-05-09T23:40:42.337Z,100647.00
2024-05-09T23:47:03.069Z,100675.06
2024-05-09T23:50:16.244Z,100734.53
2024-05-09T23:53:22.209Z,100727.47
2024-05-09T23:56:24.297Z,100729.09
2024-05-09T23:59:34.831Z,100697.22
